Time;durP1;ratioP1;P1;durP2;ratioP2;P2;SDS_P1;SDS_P2;PMS_P1;PMS_P2;Temp;Humidity;BMP_temperature;BMP_pressure;BME280_temperature;BME280_humidity;BME280_pressure;Samples;Min_cycle;Max_cycle;Signal;HPM_P1;HPM_P2
2022/01/29 00:00:59;;;;;;;14.90;4.30;;;;;;;;;;5012368;28;20464;-64
2022/01/29 00:03:26;;;;;;;13.23;4.75;;;;;;;;;;5012098;28;20135;-65
2022/01/29 00:05:53;;;;;;;15.93;5.38;;;;;;;;;;5013657;28;20527;-65
2022/01/29 00:08:19;;;;;;;17.83;5.95;;;;;;;;;;5013583;28;20459;-65
2022/01/29 00:10:48;;;;;;;12.90;5.53;;;;;;;;;;5013211;28;20160;-66
2022/01/29 00:13:15;;;;;;;17.05;5.07;;;;;;;;;;5013176;28;20052;-65
2022/01/29 00:15:41;;;;;;;11.35;3.55;;;;;;;;;;5012176;28;20457;-66
2022/01/29 00:18:07;;;;;;;8.63;3.53;;;;;;;;;;5011983;28;20475;-65
2022/01/29 00:20:33;;;;;;;12.00;4.47;;;;;;;;;;5013423;28;20109;-65
2022/01/29 00:23:00;;;;;;;15.10;5.28;;;;;;;;;;5013339;28;20065;-65
2022/01/29 00:25:26;;;;;;;12.48;4.68;;;;;;;;;;5013359;28;20049;-64
2022/01/29 00:27:53;;;;;;;11.13;4.70;;;;;;;;;;5013345;28;20077;-65
2022/01/29 00:30:25;;;;;;;12.65;4.43;;;;;;;;;;5013325;28;20052;-64
2022/01/29 00:32:51;;;;;;;16.85;4.82;;;;;;;;;;5013341;28;20075;-64
2022/01/29 00:35:17;;;;;;;8.35;3.38;;;;;;;;;;5013276;28;20026;-65
2022/01/29 00:37:43;;;;;;;13.27;3.65;;;;;;;;;;5013267;28;20026;-66
2022/01/29 00:40:10;;;;;;;12.82;4.10;;;;;;;;;;5013212;28;20112;-65
2022/01/29 00:42:36;;;;;;;11.95;4.68;;;;;;;;;;5013181;28;20018;-64
2022/01/29 00:45:03;;;;;;;13.07;5.22;;;;;;;;;;5013185;28;20101;-64
2022/01/29 00:47:29;;;;;;;11.70;4.97;;;;;;;;;;5013077;28;20109;-65
2022/01/29 00:49:55;;;;;;;19.05;4.57;;;;;;;;;;5015960;28;20030;-64
2022/01/29 00:52:21;;;;;;;12.95;4.47;;;;;;;;;;5016978;28;20062;-64
2022/01/29 00:54:47;;;;;;;13.80;4.97;;;;;;;;;;5016996;28;20114;-66
2022/01/29 00:57:14;;;;;;;10.77;4.40;;;;;;;;;;5015660;28;20034;-66
2022/01/29 00:59:40;;;;;;;11.80;4.53;;;;;;;;;;5015684;28;20120;-66
2022/01/29 01:02:09;;;;;;;11.20;3.65;;;;;;;;;;5016866;28;20064;-65
2022/01/29 01:04:38;;;;;;;19.55;4.75;;;;;;;;;;5015505;28;20034;-65
2022/01/29 01:07:05;;;;;;;13.43;4.55;;;;;;;;;;5016847;28;20054;-67
2022/01/29 01:09:31;;;;;;;17.25;4.78;;;;;;;;;;5015508;28;20166;-64
2022/01/29 01:11:57;;;;;;;13.02;5.18;;;;;;;;;;5016173;28;20541;-65
2022/01/29 01:14:23;;;;;;;10.52;4.13;;;;;;;;;;5016492;28;20030;-66
2022/01/29 01:16:49;;;;;;;8.00;3.42;;;;;;;;;;5015094;28;20036;-64
2022/01/29 01:19:16;;;;;;;6.78;3.63;;;;;;;;;;5016546;28;20121;-65
2022/01/29 01:21:42;;;;;;;10.75;3.55;;;;;;;;;;5015248;28;20022;-65
2022/01/29 01:24:08;;;;;;;11.10;4.95;;;;;;;;;;5015154;28;20478;-63
2022/01/29 01:26:35;;;;;;;11.35;4.28;;;;;;;;;;5016167;28;20032;-65
2022/01/29 01:29:01;;;;;;;8.38;3.83;;;;;;;;;;5016421;28;20109;-64
2022/01/29 01:31:27;;;;;;;10.20;3.78;;;;;;;;;;5015012;28;20525;-64
2022/01/29 01:33:53;;;;;;;9.57;3.65;;;;;;;;;;5016243;28;20032;-64
2022/01/29 01:36:23;;;;;;;9.73;3.15;;;;;;;;;;5016313;28;20049;-63
2022/01/29 01:39:00;;;;;;;7.22;3.20;;;;;;;;;;5016516;28;20029;-65
2022/01/29 01:41:28;;;;;;;8.15;2.78;;;;;;;;;;5016211;28;20108;-64
2022/01/29 01:44:03;;;;;;;6.85;2.58;;;;;;;;;;5016156;28;20041;-64
2022/01/29 01:46:30;;;;;;;5.85;3.13;;;;;;;;;;5016077;28;20104;-64
2022/01/29 01:48:56;;;;;;;10.40;3.50;;;;;;;;;;5014717;28;20030;-64
2022/01/29 01:51:23;;;;;;;8.93;2.97;;;;;;;;;;5014726;28;20073;-63
2022/01/29 01:53:49;;;;;;;10.40;4.28;;;;;;;;;;5015848;28;20116;-65
2022/01/29 01:56:15;;;;;;;10.18;3.42;;;;;;;;;;5014602;28;20109;-64
2022/01/29 01:58:42;;;;;;;10.30;3.97;;;;;;;;;;5015805;28;20069;-64
2022/01/29 02:01:08;;;;;;;13.02;3.72;;;;;;;;;;5015752;28;20426;-63
2022/01/29 02:03:34;;;;;;;8.95;3.53;;;;;;;;;;5015766;28;20072;-64
2022/01/29 02:06:02;;;;;;;6.70;3.10;;;;;;;;;;5015772;28;20060;-65
2022/01/29 02:08:28;;;;;;;7.10;2.80;;;;;;;;;;5014320;28;20108;-65
2022/01/29 02:11:01;;;;;;;12.85;3.15;;;;;;;;;;5019003;28;20053;-65
2022/01/29 02:13:28;;;;;;;7.75;2.70;;;;;;;;;;5033999;28;20037;-64
2022/01/29 02:15:55;;;;;;;5.72;2.10;;;;;;;;;;5035321;28;20038;-64
2022/01/29 02:18:22;;;;;;;8.18;3.10;;;;;;;;;;5035331;28;20061;-66
2022/01/29 02:20:49;;;;;;;9.50;2.42;;;;;;;;;;5035220;28;20442;-66
2022/01/29 02:23:17;;;;;;;9.57;2.60;;;;;;;;;;5034101;28;20541;-65
2022/01/29 02:25:47;;;;;;;9.88;3.42;;;;;;;;;;5035120;28;20021;-65
2022/01/29 02:28:21;;;;;;;10.55;2.83;;;;;;;;;;5033744;28;20026;-64
2022/01/29 02:31:03;;;;;;;4.20;2.28;;;;;;;;;;5033693;28;20117;-64
2022/01/29 02:33:29;;;;;;;6.57;2.97;;;;;;;;;;5033661;28;20029;-63
2022/01/29 02:35:56;;;;;;;7.65;2.33;;;;;;;;;;5034845;28;20412;-64
2022/01/29 02:38:24;;;;;;;10.63;3.28;;;;;;;;;;5033550;28;20025;-64
2022/01/29 02:40:53;;;;;;;7.82;2.78;;;;;;;;;;5033550;28;20024;-65
2022/01/29 02:43:22;;;;;;;8.18;2.60;;;;;;;;;;5034806;28;20049;-66
2022/01/29 02:45:50;;;;;;;7.18;2.80;;;;;;;;;;5034775;28;20017;-65
2022/01/29 02:48:16;;;;;;;9.32;2.60;;;;;;;;;;5034791;28;20021;-68
2022/01/29 02:50:43;;;;;;;7.68;2.63;;;;;;;;;;5034651;28;20025;-65
2022/01/29 02:53:09;;;;;;;6.47;2.20;;;;;;;;;;5033233;28;20029;-65
2022/01/29 02:55:35;;;;;;;14.70;3.22;;;;;;;;;;5034754;28;20112;-66
2022/01/29 02:58:02;;;;;;;6.18;2.38;;;;;;;;;;5034580;28;20032;-66
2022/01/29 03:00:29;;;;;;;8.45;2.97;;;;;;;;;;5033169;28;20561;-65
2022/01/29 03:02:55;;;;;;;10.23;2.88;;;;;;;;;;5034673;28;20034;-65
2022/01/29 03:05:21;;;;;;;8.50;3.22;;;;;;;;;;5034359;28;20022;-64
2022/01/29 03:07:48;;;;;;;7.20;3.30;;;;;;;;;;5034382;28;20021;-64
2022/01/29 03:10:14;;;;;;;12.95;4.72;;;;;;;;;;5034112;28;20104;-65
2022/01/29 03:12:41;;;;;;;10.55;2.63;;;;;;;;;;5033579;28;20493;-65
2022/01/29 03:15:11;;;;;;;11.35;3.00;;;;;;;;;;5034293;28;20026;-64
2022/01/29 03:17:37;;;;;;;15.20;3.20;;;;;;;;;;5034163;28;20037;-67
2022/01/29 03:20:04;;;;;;;10.65;3.80;;;;;;;;;;5034102;28;20033;-65
2022/01/29 03:22:30;;;;;;;13.35;3.30;;;;;;;;;;5032730;28;20029;-64
2022/01/29 03:24:57;;;;;;;13.73;3.50;;;;;;;;;;5034001;28;20021;-64
2022/01/29 03:27:23;;;;;;;12.23;3.30;;;;;;;;;;5032672;28;20033;-64
2022/01/29 03:29:49;;;;;;;9.73;2.95;;;;;;;;;;5033915;28;20026;-64
2022/01/29 03:32:16;;;;;;;16.65;3.53;;;;;;;;;;5033607;28;20401;-64
2022/01/29 03:34:42;;;;;;;10.93;3.63;;;;;;;;;;5033735;28;20037;-64
2022/01/29 03:37:09;;;;;;;8.40;3.08;;;;;;;;;;5033560;28;20043;-64
2022/01/29 03:39:36;;;;;;;10.43;3.05;;;;;;;;;;5033747;28;20026;-64
2022/01/29 03:42:06;;;;;;;10.15;2.78;;;;;;;;;;5033702;28;20025;-66
2022/01/29 03:44:32;;;;;;;12.10;3.25;;;;;;;;;;5032363;28;20389;-67
2022/01/29 03:46:59;;;;;;;10.68;3.40;;;;;;;;;;5033625;28;20079;-65
2022/01/29 03:49:25;;;;;;;11.45;3.65;;;;;;;;;;5033800;28;20116;-66
2022/01/29 03:51:52;;;;;;;14.25;3.85;;;;;;;;;;5032237;28;20033;-64
2022/01/29 03:54:18;;;;;;;14.88;3.50;;;;;;;;;;5033403;28;20037;-65
2022/01/29 03:56:44;;;;;;;17.30;3.85;;;;;;;;;;5032483;28;20387;-67
2022/01/29 03:59:10;;;;;;;12.93;3.58;;;;;;;;;;5033379;28;20018;-64
2022/01/29 04:01:37;;;;;;;15.10;3.25;;;;;;;;;;5033407;28;20474;-66
2022/01/29 04:04:04;;;;;;;15.70;3.58;;;;;;;;;;5032058;28;20462;-66
2022/01/29 04:06:33;;;;;;;13.20;3.40;;;;;;;;;;5033263;28;20104;-65
2022/01/29 04:09:03;;;;;;;11.85;3.70;;;;;;;;;;5033283;28;20026;-63
2022/01/29 04:11:29;;;;;;;11.20;3.90;;;;;;;;;;5031671;28;20512;-65
2022/01/29 04:13:56;;;;;;;10.82;3.15;;;;;;;;;;5031777;28;20029;-65
2022/01/29 04:16:22;;;;;;;9.52;2.95;;;;;;;;;;5033235;28;20041;-65
2022/01/29 04:18:48;;;;;;;9.82;4.30;;;;;;;;;;5033238;28;20029;-66
2022/01/29 04:21:15;;;;;;;13.55;3.67;;;;;;;;;;5033135;28;20028;-64
2022/01/29 04:23:41;;;;;;;13.73;3.25;;;;;;;;;;5030980;28;20037;-65
2022/01/29 04:26:07;;;;;;;9.70;4.20;;;;;;;;;;5032721;28;20397;-66
2022/01/29 04:28:39;;;;;;;17.10;3.55;;;;;;;;;;5033093;28;20025;-65
2022/01/29 04:31:11;;;;;;;11.73;3.42;;;;;;;;;;5033101;28;20033;-66
2022/01/29 04:33:37;;;;;;;15.45;3.10;;;;;;;;;;5033026;28;20039;-64
2022/01/29 04:36:04;;;;;;;6.55;2.75;;;;;;;;;;5032928;28;20040;-65
2022/01/29 04:38:31;;;;;;;10.25;2.70;;;;;;;;;;5031708;28;20499;-64
2022/01/29 04:41:00;;;;;;;9.32;2.10;;;;;;;;;;5031577;28;20076;-64
2022/01/29 04:43:27;;;;;;;9.00;3.05;;;;;;;;;;5032920;28;20463;-64
2022/01/29 04:45:53;;;;;;;10.32;2.88;;;;;;;;;;5032877;28;20034;-63
2022/01/29 04:48:19;;;;;;;10.70;3.10;;;;;;;;;;5032829;28;20108;-65
2022/01/29 04:50:45;;;;;;;11.77;2.47;;;;;;;;;;5032520;28;20492;-63
2022/01/29 04:53:12;;;;;;;15.77;4.38;;;;;;;;;;5031432;28;20044;-62
2022/01/29 04:55:38;;;;;;;11.73;4.75;;;;;;;;;;5031473;28;20035;-63
2022/01/29 04:58:05;;;;;;;15.05;4.68;;;;;;;;;;5032819;28;20053;-64
2022/01/29 05:00:32;;;;;;;16.05;4.03;;;;;;;;;;5032756;28;20025;-64
2022/01/29 05:03:05;;;;;;;12.85;4.38;;;;;;;;;;5032775;28;20048;-63
2022/01/29 05:05:32;;;;;;;16.35;3.97;;;;;;;;;;5032788;28;20034;-64
2022/01/29 05:07:58;;;;;;;14.35;3.33;;;;;;;;;;5031445;28;20124;-63
2022/01/29 05:10:24;;;;;;;14.18;3.42;;;;;;;;;;5031359;28;20026;-64
2022/01/29 05:12:59;;;;;;;9.52;3.20;;;;;;;;;;5032064;28;20037;-64
2022/01/29 05:29:04;;;;;;;12.77;3.10;;;;;;;;;;5032331;28;20041;-64
2022/01/29 05:31:31;;;;;;;11.85;2.92;;;;;;;;;;5032486;28;20466;-63
2022/01/29 05:33:57;;;;;;;13.73;4.35;;;;;;;;;;5032352;28;20030;-64
2022/01/29 05:36:23;;;;;;;13.77;4.22;;;;;;;;;;5035671;28;20478;-64
2022/01/29 05:38:50;;;;;;;13.32;4.50;;;;;;;;;;5034770;28;20033;-64
2022/01/29 05:41:16;;;;;;;14.23;5.97;;;;;;;;;;5035983;28;20104;-63
2022/01/29 05:43:43;;;;;;;19.42;6.40;;;;;;;;;;5034662;28;20516;-63
2022/01/29 05:46:10;;;;;;;18.77;5.05;;;;;;;;;;5035930;28;20021;-63
2022/01/29 05:48:36;;;;;;;10.50;3.90;;;;;;;;;;5035815;28;20021;-63
2022/01/29 05:51:03;;;;;;;13.10;3.72;;;;;;;;;;5035771;28;20427;-64
2022/01/29 05:53:29;;;;;;;6.50;2.70;;;;;;;;;;5035426;28;20049;-63
2022/01/29 05:55:55;;;;;;;11.98;4.57;;;;;;;;;;5035726;28;20105;-63
2022/01/29 05:58:21;;;;;;;16.75;4.53;;;;;;;;;;5034146;28;20030;-63
2022/01/29 06:00:48;;;;;;;11.98;4.10;;;;;;;;;;5035665;28;20112;-63
2022/01/29 06:03:14;;;;;;;8.02;2.55;;;;;;;;;;5035573;28;20488;-63
2022/01/29 06:05:40;;;;;;;11.02;3.10;;;;;;;;;;5035561;28;20030;-63
2022/01/29 06:08:06;;;;;;;10.10;3.05;;;;;;;;;;5034255;28;20120;-63
2022/01/29 06:10:33;;;;;;;10.57;2.88;;;;;;;;;;5035469;28;20025;-65
2022/01/29 06:13:13;;;;;;;13.05;4.40;;;;;;;;;;5035652;28;20421;-66
2022/01/29 06:15:43;;;;;;;11.18;3.58;;;;;;;;;;5035426;28;20352;-65
2022/01/29 06:18:15;;;;;;;11.30;3.20;;;;;;;;;;5035391;28;20075;-67
2022/01/29 06:20:42;;;;;;;16.08;4.90;;;;;;;;;;5035398;28;20029;-65
2022/01/29 06:23:10;;;;;;;35.58;11.50;;;;;;;;;;5035200;28;20036;-65
2022/01/29 06:25:36;;;;;;;67.80;26.60;;;;;;;;;;5035224;28;20021;-66
2022/01/29 06:28:02;;;;;;;47.30;21.15;;;;;;;;;;5033491;28;20144;-66
2022/01/29 06:30:28;;;;;;;22.60;8.57;;;;;;;;;;5035382;28;20104;-69
2022/01/29 06:32:55;;;;;;;18.27;7.03;;;;;;;;;;5033664;28;20148;-67
2022/01/29 06:35:21;;;;;;;19.25;6.80;;;;;;;;;;5035238;28;20109;-66
2022/01/29 06:37:47;;;;;;;24.15;8.45;;;;;;;;;;5034866;28;20096;-68
2022/01/29 06:40:14;;;;;;;20.60;6.97;;;;;;;;;;5034878;28;20030;-64
2022/01/29 06:42:40;;;;;;;23.67;8.35;;;;;;;;;;5025416;28;20053;-65
2022/01/29 06:45:06;;;;;;;26.30;10.50;;;;;;;;;;5023910;28;20100;-66
2022/01/29 06:47:33;;;;;;;18.98;9.18;;;;;;;;;;5023353;28;20060;-65
2022/01/29 06:49:59;;;;;;;27.58;9.02;;;;;;;;;;5022431;28;20523;-66
2022/01/29 06:52:25;;;;;;;22.08;8.60;;;;;;;;;;5022531;28;20055;-65
2022/01/29 06:54:51;;;;;;;25.75;10.25;;;;;;;;;;5022510;28;20088;-64
2022/01/29 06:57:18;;;;;;;21.95;9.30;;;;;;;;;;5020801;28;20025;-65
2022/01/29 06:59:44;;;;;;;29.38;14.10;;;;;;;;;;5014758;28;20121;-65
2022/01/29 07:02:10;;;;;;;18.58;7.32;;;;;;;;;;5014734;28;20471;-65
2022/01/29 07:04:36;;;;;;;21.88;10.75;;;;;;;;;;5014469;28;20044;-64
2022/01/29 07:07:02;;;;;;;24.67;8.52;;;;;;;;;;5014579;28;20033;-65
2022/01/29 07:09:29;;;;;;;28.42;10.77;;;;;;;;;;5014659;28;20049;-67
2022/01/29 07:11:59;;;;;;;27.77;9.38;;;;;;;;;;5012807;28;20053;-66
2022/01/29 07:14:25;;;;;;;27.70;9.90;;;;;;;;;;5013200;28;20109;-65
2022/01/29 07:16:52;;;;;;;25.55;9.93;;;;;;;;;;5014496;28;20096;-66
2022/01/29 07:19:18;;;;;;;21.40;8.70;;;;;;;;;;5014409;28;20109;-65
2022/01/29 07:21:44;;;;;;;20.60;8.18;;;;;;;;;;5013020;28;20036;-66
2022/01/29 07:24:10;;;;;;;18.33;7.07;;;;;;;;;;5014343;28;20122;-66
2022/01/29 07:26:36;;;;;;;28.75;12.05;;;;;;;;;;5011240;28;20034;-67
2022/01/29 07:29:03;;;;;;;27.80;10.80;;;;;;;;;;5014278;28;20523;-68
2022/01/29 07:31:29;;;;;;;31.50;13.75;;;;;;;;;;5014200;28;20026;-68
2022/01/29 07:33:55;;;;;;;32.35;13.95;;;;;;;;;;5014025;28;20037;-65
2022/01/29 07:36:22;;;;;;;31.10;11.93;;;;;;;;;;5014034;28;20029;-67
2022/01/29 07:38:49;;;;;;;33.97;13.02;;;;;;;;;;5013717;28;20045;-67
2022/01/29 07:41:15;;;;;;;29.52;12.27;;;;;;;;;;5012638;28;20083;-66
2022/01/29 07:43:41;;;;;;;17.90;7.13;;;;;;;;;;5013925;28;20112;-68
2022/01/29 07:46:07;;;;;;;30.80;13.55;;;;;;;;;;5014083;28;20030;-64
2022/01/29 07:48:33;;;;;;;15.43;7.07;;;;;;;;;;5015778;28;20076;-67
2022/01/29 07:50:59;;;;;;;21.00;9.18;;;;;;;;;;5022675;28;20388;-64
2022/01/29 07:53:26;;;;;;;18.50;8.05;;;;;;;;;;5023300;28;20076;-64
2022/01/29 07:55:52;;;;;;;20.73;8.40;;;;;;;;;;5014520;28;20052;-68
2022/01/29 07:58:18;;;;;;;19.65;6.90;;;;;;;;;;5013352;28;20113;-65
2022/01/29 08:00:44;;;;;;;20.50;6.80;;;;;;;;;;5013723;28;20645;-67
2022/01/29 08:03:10;;;;;;;15.68;6.10;;;;;;;;;;5013660;28;20038;-69
2022/01/29 08:05:37;;;;;;;20.23;7.05;;;;;;;;;;5013584;28;20113;-65
2022/01/29 08:08:03;;;;;;;16.55;4.88;;;;;;;;;;5012151;28;20030;-67
2022/01/29 08:10:29;;;;;;;15.45;6.35;;;;;;;;;;5013356;28;20022;-66
2022/01/29 08:12:55;;;;;;;12.10;4.25;;;;;;;;;;5013453;28;20034;-65
2022/01/29 08:15:21;;;;;;;14.23;4.95;;;;;;;;;;5020982;28;20094;-62
2022/01/29 08:17:48;;;;;;;11.60;5.05;;;;;;;;;;5032794;28;20014;-64
2022/01/29 08:20:14;;;;;;;11.07;3.83;;;;;;;;;;5012809;28;20056;-65
2022/01/29 08:22:40;;;;;;;10.93;5.45;;;;;;;;;;5012851;28;20022;-64
2022/01/29 08:25:07;;;;;;;7.13;3.03;;;;;;;;;;5013040;28;20036;-66
2022/01/29 08:27:33;;;;;;;196.77;77.60;;;;;;;;;;5011480;28;20026;-66
2022/01/29 08:29:59;;;;;;;16.20;6.20;;;;;;;;;;5013245;28;20044;-67
2022/01/29 08:32:25;;;;;;;18.42;9.10;;;;;;;;;;5013224;28;20030;-64
2022/01/29 08:34:51;;;;;;;11.65;6.25;;;;;;;;;;5011769;28;20478;-65
2022/01/29 08:37:18;;;;;;;12.95;4.25;;;;;;;;;;5013102;28;20026;-62
2022/01/29 08:39:45;;;;;;;11.77;4.38;;;;;;;;;;5013306;28;20382;-63
2022/01/29 08:42:11;;;;;;;14.68;4.78;;;;;;;;;;5012906;28;20450;-62
2022/01/29 08:44:38;;;;;;;19.52;6.07;;;;;;;;;;5013271;28;20382;-64
2022/01/29 08:47:04;;;;;;;16.15;4.45;;;;;;;;;;5012942;28;20025;-63
2022/01/29 08:49:32;;;;;;;16.23;6.47;;;;;;;;;;5025955;28;20417;-64
2022/01/29 08:51:58;;;;;;;13.35;5.00;;;;;;;;;;5032797;28;20096;-63
2022/01/29 08:54:24;;;;;;;26.52;12.52;;;;;;;;;;5031334;28;20025;-64
2022/01/29 08:56:50;;;;;;;16.02;8.07;;;;;;;;;;5032754;28;20040;-64
2022/01/29 08:59:17;;;;;;;11.05;4.78;;;;;;;;;;5032730;28;20050;-64
2022/01/29 09:01:43;;;;;;;9.45;3.50;;;;;;;;;;5032577;28;20030;-64
2022/01/29 09:04:09;;;;;;;6.70;3.08;;;;;;;;;;5032909;28;20030;-62
2022/01/29 09:06:35;;;;;;;10.05;4.60;;;;;;;;;;5031032;28;20036;-62
2022/01/29 09:09:01;;;;;;;9.32;3.55;;;;;;;;;;5030584;28;20022;-63
2022/01/29 09:11:28;;;;;;;28.58;12.35;;;;;;;;;;5035789;28;20487;-63
2022/01/29 09:13:54;;;;;;;43.17;22.58;;;;;;;;;;5035930;28;20057;-63
2022/01/29 09:16:20;;;;;;;59.22;29.60;;;;;;;;;;5035312;28;20095;-64
2022/01/29 09:18:47;;;;;;;121.60;63.88;;;;;;;;;;5034411;28;20030;-62
2022/01/29 09:21:13;;;;;;;35.53;18.73;;;;;;;;;;5035694;28;20033;-62
2022/01/29 09:23:41;;;;;;;24.20;14.18;;;;;;;;;;5034724;28;20040;-62
2022/01/29 09:26:07;;;;;;;24.58;16.02;;;;;;;;;;5036217;28;20026;-61
2022/01/29 09:28:33;;;;;;;13.23;7.28;;;;;;;;;;5036193;28;20029;-62
2022/01/29 09:30:59;;;;;;;22.70;14.63;;;;;;;;;;5036088;28;20033;-63
2022/01/29 09:33:25;;;;;;;23.90;11.82;;;;;;;;;;5035853;28;20417;-66
2022/01/29 09:35:52;;;;;;;20.05;6.60;;;;;;;;;;5035983;28;20037;-63
2022/01/29 09:38:18;;;;;;;18.42;10.80;;;;;;;;;;5034565;28;20036;-63
2022/01/29 09:40:44;;;;;;;16.63;8.05;;;;;;;;;;5035934;28;20030;-63
2022/01/29 09:43:11;;;;;;;60.22;13.55;;;;;;;;;;5036018;28;20138;-63
2022/01/29 09:45:38;;;;;;;44.47;25.67;;;;;;;;;;5035905;28;20021;-63
2022/01/29 09:48:05;;;;;;;16.45;8.95;;;;;;;;;;5035935;28;20021;-64
2022/01/29 09:50:32;;;;;;;12.85;5.50;;;;;;;;;;5035927;28;20022;-65
2022/01/29 09:52:59;;;;;;;13.70;4.13;;;;;;;;;;5036007;28;20053;-64
2022/01/29 09:55:26;;;;;;;25.67;12.48;;;;;;;;;;5034455;28;20033;-63
2022/01/29 09:57:53;;;;;;;19.40;11.55;;;;;;;;;;5035671;28;20554;-64
2022/01/29 10:00:19;;;;;;;10.45;5.75;;;;;;;;;;5034627;28;20014;-63
2022/01/29 10:03:06;;;;;;;14.55;8.48;;;;;;;;;;5035524;28;20021;-64
2022/01/29 10:05:35;;;;;;;21.10;10.00;;;;;;;;;;5035511;28;20104;-63
2022/01/29 10:08:02;;;;;;;23.95;14.30;;;;;;;;;;5034204;28;20030;-63
2022/01/29 10:10:29;;;;;;;13.02;6.28;;;;;;;;;;5035331;28;20044;-63
2022/01/29 10:12:55;;;;;;;9.02;3.22;;;;;;;;;;5035326;28;20017;-63
2022/01/29 10:15:25;;;;;;;11.32;4.85;;;;;;;;;;5035049;28;20021;-63
2022/01/29 10:17:56;;;;;;;16.65;8.02;;;;;;;;;;5035266;28;20053;-64
2022/01/29 10:20:23;;;;;;;8.93;5.47;;;;;;;;;;5035058;28;20508;-64
2022/01/29 10:22:54;;;;;;;11.32;4.47;;;;;;;;;;5034159;28;20258;-63
2022/01/29 10:25:26;;;;;;;10.43;4.47;;;;;;;;;;5035185;28;20068;-62
2022/01/29 10:28:12;;;;;;;11.90;6.15;;;;;;;;;;5033869;28;20076;-62
2022/01/29 10:30:51;;;;;;;15.52;5.95;;;;;;;;;;5033683;28;20347;-63
2022/01/29 10:33:21;;;;;;;17.65;6.88;;;;;;;;;;5034988;28;20055;-62
2022/01/29 10:35:52;;;;;;;9.38;4.60;;;;;;;;;;5037734;28;20092;-64
2022/01/29 10:38:20;;;;;;;9.35;4.00;;;;;;;;;;5026949;28;20021;-65
2022/01/29 10:40:46;;;;;;;9.13;4.72;;;;;;;;;;5015015;28;20061;-63
2022/01/29 10:43:12;;;;;;;14.43;7.15;;;;;;;;;;5013574;28;20030;-62
2022/01/29 10:45:38;;;;;;;13.13;5.82;;;;;;;;;;5014927;28;20028;-64
2022/01/29 10:48:06;;;;;;;17.88;9.27;;;;;;;;;;5014871;28;20521;-63
2022/01/29 10:50:33;;;;;;;12.27;5.35;;;;;;;;;;5013496;28;20374;-62
2022/01/29 10:53:19;;;;;;;32.40;4.80;;;;;;;;;;5014727;28;20103;-62
2022/01/29 10:55:58;;;;;;;11.80;3.47;;;;;;;;;;5012772;28;20029;-63
2022/01/29 10:58:25;;;;;;;5.43;3.08;;;;;;;;;;5014681;28;20123;-65
2022/01/29 11:01:11;;;;;;;12.52;5.93;;;;;;;;;;5014617;28;20030;-61
2022/01/29 11:03:37;;;;;;;32.38;10.07;;;;;;;;;;5014757;28;20030;-65
2022/01/29 11:06:03;;;;;;;12.32;5.57;;;;;;;;;;5014613;28;20117;-64
2022/01/29 11:08:30;;;;;;;24.33;9.68;;;;;;;;;;5014579;28;20029;-63
2022/01/29 11:10:56;;;;;;;10.52;4.15;;;;;;;;;;5012935;28;20100;-65
2022/01/29 11:13:23;;;;;;;9.55;4.72;;;;;;;;;;5014566;28;20545;-64
2022/01/29 11:15:51;;;;;;;10.85;4.80;;;;;;;;;;5012738;28;20049;-63
2022/01/29 11:18:18;;;;;;;28.38;12.60;;;;;;;;;;5014423;28;20025;-63
2022/01/29 11:20:45;;;;;;;16.25;6.80;;;;;;;;;;5014070;28;20498;-63
2022/01/29 11:23:11;;;;;;;10.85;4.30;;;;;;;;;;5013855;28;20427;-63
2022/01/29 11:25:38;;;;;;;21.10;8.25;;;;;;;;;;5016212;28;20035;-63
2022/01/29 11:28:14;;;;;;;20.40;9.27;;;;;;;;;;5033494;28;20465;-64
2022/01/29 11:30:44;;;;;;;21.33;12.18;;;;;;;;;;5033652;28;20112;-62
2022/01/29 11:33:10;;;;;;;16.75;7.50;;;;;;;;;;5033301;28;20032;-62
2022/01/29 11:35:52;;;;;;;22.08;10.57;;;;;;;;;;5033513;28;20059;-63
2022/01/29 11:38:29;;;;;;;85.47;35.42;;;;;;;;;;5033255;28;20083;-63
2022/01/29 11:40:57;;;;;;;39.58;19.52;;;;;;;;;;5033800;28;20040;-63
2022/01/29 11:43:24;;;;;;;43.70;19.50;;;;;;;;;;5033326;28;20036;-63
2022/01/29 11:45:57;;;;;;;31.02;13.65;;;;;;;;;;5033555;28;20104;-63
2022/01/29 11:50:56;;;;;;;38.05;15.52;;;;;;;;;;5033343;28;20441;-61
2022/01/29 11:53:23;;;;;;;67.53;36.70;;;;;;;;;;5033238;28;20025;-60
2022/01/29 11:55:51;;;;;;;16.38;8.10;;;;;;;;;;5032993;28;20496;-62
2022/01/29 11:58:28;;;;;;;9.07;5.47;;;;;;;;;;5033210;28;20480;-61
2022/01/29 12:00:56;;;;;;;10.23;4.38;;;;;;;;;;5033101;28;20041;-63
2022/01/29 12:03:43;;;;;;;11.82;4.90;;;;;;;;;;5031529;28;20037;-61
2022/01/29 12:06:12;;;;;;;10.65;3.80;;;;;;;;;;5032922;28;20017;-61
2022/01/29 12:08:58;;;;;;;12.95;4.28;;;;;;;;;;5032527;28;20508;-63
2022/01/29 12:11:25;;;;;;;13.15;4.90;;;;;;;;;;5031162;28;20132;-63
2022/01/29 12:14:10;;;;;;;11.75;4.07;;;;;;;;;;5031392;28;20108;-61
2022/01/29 12:16:48;;;;;;;15.50;4.68;;;;;;;;;;5032641;28;20420;-61
2022/01/29 12:22:13;;;;;;;12.45;4.93;;;;;;;;;;5023356;28;20517;-62
2022/01/29 12:24:41;;;;;;;8.13;4.05;;;;;;;;;;5019377;28;20026;-62
2022/01/29 12:27:10;;;;;;;20.00;5.50;;;;;;;;;;5023901;28;20100;-59
2022/01/29 12:29:37;;;;;;;10.18;4.13;;;;;;;;;;5021418;28;20025;-63
2022/01/29 12:32:04;;;;;;;8.02;3.97;;;;;;;;;;5029831;28;20534;-60
2022/01/29 12:34:30;;;;;;;11.38;4.55;;;;;;;;;;5031357;28;20041;-62
2022/01/29 12:37:09;;;;;;;91.50;37.05;;;;;;;;;;5030877;28;20136;-62
2022/01/29 12:39:37;;;;;;;38.17;17.05;;;;;;;;;;5032810;28;20108;-62
2022/01/29 12:42:11;;;;;;;20.95;8.52;;;;;;;;;;5031559;28;20103;-61
2022/01/29 12:44:38;;;;;;;8.45;3.45;;;;;;;;;;5033173;28;20367;-62
2022/01/29 12:47:05;;;;;;;27.40;13.15;;;;;;;;;;5035302;28;20076;-62
2022/01/29 12:49:43;;;;;;;27.15;12.15;;;;;;;;;;5036506;28;20040;-62
2022/01/29 12:52:14;;;;;;;8.95;2.58;;;;;;;;;;5047298;28;20025;-62
2022/01/29 12:54:41;;;;;;;17.20;8.10;;;;;;;;;;5020482;28;20454;-62
2022/01/29 12:57:07;;;;;;;19.83;6.95;;;;;;;;;;5016709;28;20061;-61
2022/01/29 12:59:37;;;;;;;9.82;5.47;;;;;;;;;;5016651;28;20164;-62
2022/01/29 13:02:04;;;;;;;16.52;5.55;;;;;;;;;;5016316;28;20524;-61
2022/01/29 13:04:31;;;;;;;9.27;4.63;;;;;;;;;;5015019;28;20030;-61
2022/01/29 13:07:02;;;;;;;16.20;4.50;;;;;;;;;;5015221;28;20034;-62
2022/01/29 13:09:28;;;;;;;13.63;3.67;;;;;;;;;;5016410;28;20033;-62
2022/01/29 13:12:01;;;;;;;7.43;2.85;;;;;;;;;;5014948;28;20131;-61
2022/01/29 13:14:27;;;;;;;10.80;3.20;;;;;;;;;;5016328;28;20121;-62
2022/01/29 13:17:00;;;;;;;10.32;4.18;;;;;;;;;;5016478;28;20069;-61
2022/01/29 13:19:28;;;;;;;12.63;4.03;;;;;;;;;;5016329;28;20419;-61
2022/01/29 13:21:58;;;;;;;9.57;5.30;;;;;;;;;;5014952;28;20025;-61
2022/01/29 13:24:28;;;;;;;10.73;4.18;;;;;;;;;;5014848;28;20080;-61
2022/01/29 13:27:06;;;;;;;11.20;4.50;;;;;;;;;;5016281;28;20117;-61
2022/01/29 13:29:33;;;;;;;11.88;5.03;;;;;;;;;;5016051;28;20029;-63
2022/01/29 13:32:01;;;;;;;12.48;4.82;;;;;;;;;;5016352;28;20030;-62
2022/01/29 13:34:37;;;;;;;14.93;5.35;;;;;;;;;;5016232;28;20037;-62
2022/01/29 13:37:23;;;;;;;8.00;3.38;;;;;;;;;;5015840;28;20030;-62
2022/01/29 13:39:50;;;;;;;6.60;3.38;;;;;;;;;;5014476;28;20466;-63
2022/01/29 13:42:19;;;;;;;11.70;4.88;;;;;;;;;;5021545;28;20025;-61
2022/01/29 13:45:04;;;;;;;11.18;4.50;;;;;;;;;;5031957;28;20049;-61
2022/01/29 13:47:31;;;;;;;13.55;5.10;;;;;;;;;;5024379;28;20374;-61
2022/01/29 13:49:57;;;;;;;12.10;3.97;;;;;;;;;;5019254;28;20026;-61
2022/01/29 13:52:24;;;;;;;12.60;4.88;;;;;;;;;;5025050;28;20075;-61
2022/01/29 13:54:50;;;;;;;16.55;6.43;;;;;;;;;;5024442;28;20025;-61
2022/01/29 13:57:16;;;;;;;13.95;4.93;;;;;;;;;;5021580;28;20419;-61
2022/01/29 13:59:46;;;;;;;18.83;5.05;;;;;;;;;;5023121;28;20040;-61
2022/01/29 14:02:12;;;;;;;11.70;4.00;;;;;;;;;;5023927;28;20018;-61
2022/01/29 14:04:40;;;;;;;8.65;3.60;;;;;;;;;;5025065;28;20087;-61
2022/01/29 14:07:19;;;;;;;17.30;5.63;;;;;;;;;;5027326;28;20025;-61
2022/01/29 14:09:48;;;;;;;14.75;5.15;;;;;;;;;;5035334;28;20468;-61
2022/01/29 14:12:14;;;;;;;11.05;5.22;;;;;;;;;;5032372;28;20077;-61
2022/01/29 14:15:00;;;;;;;16.08;5.05;;;;;;;;;;5035099;28;20052;-61
2022/01/29 14:17:27;;;;;;;11.90;5.03;;;;;;;;;;5033744;28;20117;-61
2022/01/29 14:19:56;;;;;;;14.73;5.10;;;;;;;;;;5033678;28;20112;-61
2022/01/29 14:22:24;;;;;;;9.52;3.90;;;;;;;;;;5034708;28;20521;-64
2022/01/29 14:24:51;;;;;;;12.68;4.70;;;;;;;;;;5034898;28;20022;-61
2022/01/29 14:27:18;;;;;;;18.83;7.57;;;;;;;;;;5034950;28;20021;-61
2022/01/29 14:29:44;;;;;;;19.88;8.00;;;;;;;;;;5034355;28;20474;-61
2022/01/29 14:32:11;;;;;;;23.40;8.98;;;;;;;;;;5034791;28;20026;-61
2022/01/29 14:34:38;;;;;;;24.98;9.75;;;;;;;;;;5034899;28;20032;-61
2022/01/29 14:37:05;;;;;;;34.58;10.40;;;;;;;;;;5032766;28;20021;-61
2022/01/29 14:39:31;;;;;;;28.05;6.85;;;;;;;;;;5034496;28;20466;-61
2022/01/29 14:42:00;;;;;;;15.73;6.97;;;;;;;;;;5033383;28;20022;-61
2022/01/29 14:44:28;;;;;;;15.52;4.53;;;;;;;;;;5032688;28;20027;-61
2022/01/29 14:46:54;;;;;;;11.88;4.93;;;;;;;;;;5034597;28;20021;-62
2022/01/29 14:49:21;;;;;;;19.63;6.15;;;;;;;;;;5034494;28;20411;-62
2022/01/29 14:51:47;;;;;;;18.48;7.63;;;;;;;;;;5034796;28;20048;-61
2022/01/29 14:54:14;;;;;;;20.33;6.55;;;;;;;;;;5033211;28;20120;-63